Time;durP1;ratioP1;P1;durP2;ratioP2;P2;SDS_P1;SDS_P2;PMS_P1;PMS_P2;Temp;Humidity;BMP_temperature;BMP_pressure;BME280_temperature;BME280_humidity;BME280_pressure;Samples;Min_cycle;Max_cycle;Signal;HPM_P1;HPM_P2
2021/07/17 00:00:28;;;;;;;556.17;339.60;;;15.20;99.90;;;;;;8261394;28;20041;-63
2021/07/17 00:04:28;;;;;;;558.28;341.80;;;15.40;99.90;;;;;;8261048;28;20046;-63
2021/07/17 00:08:29;;;;;;;559.72;340.48;;;15.30;99.90;;;;;;8260578;28;20027;-63
2021/07/17 00:12:29;;;;;;;557.80;338.02;;;15.00;99.90;;;;;;8260114;28;20030;-63
2021/07/17 00:16:30;;;;;;;551.95;333.02;;;14.90;99.90;;;;;;8251594;28;20034;-63
2021/07/17 00:20:31;;;;;;;555.55;335.77;;;15.10;99.90;;;;;;8259968;28;20030;-63
2021/07/17 00:24:32;;;;;;;560.85;339.77;;;15.10;99.90;;;;;;8270260;28;20056;-63
2021/07/17 00:28:33;;;;;;;565.55;347.75;;;15.30;99.90;;;;;;8233927;28;20446;-63
2021/07/17 00:32:34;;;;;;;556.67;335.33;;;15.30;99.90;;;;;;8217622;28;20030;-63
2021/07/17 00:36:35;;;;;;;559.00;339.02;;;15.10;99.90;;;;;;8257773;28;20041;-63
2021/07/17 00:40:35;;;;;;;554.47;329.35;;;14.90;99.90;;;;;;8251770;28;20026;-63
2021/07/17 00:44:36;;;;;;;557.38;331.98;;;15.00;99.90;;;;;;8259724;28;20516;-63
2021/07/17 00:48:39;;;;;;;560.80;338.17;;;15.00;99.90;;;;;;8259952;28;20034;-63
2021/07/17 00:52:40;;;;;;;557.50;332.13;;;15.00;99.90;;;;;;8264970;28;20048;-63
2021/07/17 00:56:42;;;;;;;557.58;334.52;;;15.20;99.90;;;;;;8292060;28;20072;-63
2021/07/17 01:00:42;;;;;;;559.08;340.30;;;15.50;99.90;;;;;;8292198;28;20026;-63
2021/07/17 01:04:44;;;;;;;562.58;342.83;;;15.40;99.90;;;;;;8257744;28;20498;-63
2021/07/17 01:08:44;;;;;;;559.25;342.67;;;15.50;99.90;;;;;;8259562;28;20027;-63
2021/07/17 01:12:46;;;;;;;560.42;344.20;;;15.50;99.90;;;;;;8259348;28;20036;-63
2021/07/17 01:16:47;;;;;;;560.75;343.10;;;15.70;99.90;;;;;;8259360;28;20034;-63
2021/07/17 01:20:49;;;;;;;559.28;343.05;;;15.80;99.90;;;;;;8259719;28;20610;-63
2021/07/17 01:24:50;;;;;;;558.55;345.33;;;15.70;99.90;;;;;;8282058;28;20104;-63
2021/07/17 01:28:51;;;;;;;557.05;347.40;;;15.90;99.90;;;;;;8256141;28;20030;-63
2021/07/17 01:32:52;;;;;;;559.78;344.92;;;16.00;99.90;;;;;;8259011;28;20041;-63
2021/07/17 01:36:52;;;;;;;557.25;345.75;;;16.00;99.90;;;;;;8262553;28;20031;-63
2021/07/17 01:40:53;;;;;;;560.42;345.65;;;15.90;99.90;;;;;;8265509;28;20485;-63
2021/07/17 01:44:54;;;;;;;566.85;359.25;;;15.90;99.90;;;;;;8247191;28;20041;-63
2021/07/17 01:48:55;;;;;;;560.22;351.92;;;16.00;99.90;;;;;;8265542;28;20022;-63
2021/07/17 01:52:57;;;;;;;563.65;360.02;;;16.00;99.90;;;;;;8263979;28;20026;-63
2021/07/17 01:56:57;;;;;;;566.95;357.50;;;16.00;99.90;;;;;;8297096;28;20400;-63
2021/07/17 02:00:58;;;;;;;564.90;360.02;;;16.00;99.90;;;;;;8297431;28;20112;-63
2021/07/17 02:05:06;;;;;;;560.80;355.23;;;16.00;99.90;;;;;;8276896;28;20404;-63
2021/07/17 02:09:07;;;;;;;560.13;356.75;;;16.00;99.90;;;;;;8264491;28;20571;-63
2021/07/17 02:13:10;;;;;;;556.50;350.65;;;16.30;99.90;;;;;;8264643;28;20088;-63
2021/07/17 02:17:11;;;;;;;564.15;354.55;;;16.10;99.90;;;;;;8256019;28;20514;-63
2021/07/17 02:21:13;;;;;;;557.30;348.60;;;16.10;99.90;;;;;;8264321;28;20038;-63
2021/07/17 02:25:14;;;;;;;560.17;353.25;;;16.30;99.90;;;;;;8289765;28;20034;-63
2021/07/17 02:29:15;;;;;;;558.47;355.63;;;16.20;99.90;;;;;;8296948;28;20560;-63
2021/07/17 02:33:16;;;;;;;557.60;356.67;;;16.10;99.90;;;;;;8290661;28;20029;-63
2021/07/17 02:37:17;;;;;;;558.50;353.90;;;16.10;99.90;;;;;;8264061;28;20023;-64
2021/07/17 02:41:18;;;;;;;556.67;354.13;;;16.20;99.90;;;;;;8254803;28;20657;-63
2021/07/17 02:45:18;;;;;;;560.03;354.60;;;16.20;99.90;;;;;;8263226;28;20038;-63
2021/07/17 02:49:19;;;;;;;549.67;346.27;;;16.40;99.90;;;;;;8263018;28;20370;-63
2021/07/17 02:53:20;;;;;;;550.50;349.38;;;16.30;99.90;;;;;;8274124;28;20029;-63
2021/07/17 02:57:20;;;;;;;555.50;351.75;;;16.30;99.90;;;;;;8294725;28;20396;-63
2021/07/17 03:01:21;;;;;;;548.05;346.73;;;16.70;99.90;;;;;;8295317;28;20034;-63
2021/07/17 03:05:21;;;;;;;550.63;346.50;;;16.50;99.90;;;;;;8272328;28;20093;-63
2021/07/17 03:09:22;;;;;;;554.08;349.45;;;16.50;99.90;;;;;;8263195;28;20034;-63
2021/07/17 03:13:22;;;;;;;556.78;349.35;;;16.70;99.90;;;;;;8263294;28;20106;-63
2021/07/17 03:17:23;;;;;;;555.55;353.60;;;16.80;99.90;;;;;;8268872;28;20030;-63
2021/07/17 03:21:24;;;;;;;553.45;349.17;;;16.80;99.90;;;;;;8277485;28;20032;-63
2021/07/17 03:25:24;;;;;;;23.17;17.38;;;16.90;99.90;;;;;;8294884;28;20663;-63
2021/07/17 03:29:25;;;;;;;440.75;389.08;;;16.90;99.90;;;;;;8294945;28;20025;-63
2021/07/17 03:33:26;;;;;;;21.27;14.90;;;17.00;99.90;;;;;;8287125;28;20053;-63
2021/07/17 03:37:26;;;;;;;15.75;11.73;;;16.80;99.90;;;;;;8261983;28;20034;-63
2021/07/17 03:41:27;;;;;;;50.40;41.70;;;16.70;99.90;;;;;;8244733;28;20057;-63
2021/07/17 03:45:28;;;;;;;18.67;12.93;;;16.80;99.90;;;;;;8261771;28;20038;-63
2021/07/17 03:49:28;;;;;;;21.20;13.13;;;16.80;99.90;;;;;;8261731;28;20543;-63
2021/07/17 03:53:29;;;;;;;548.85;366.08;;;16.90;99.90;;;;;;8273468;28;20047;-63
2021/07/17 03:57:29;;;;;;;540.38;353.30;;;16.90;99.90;;;;;;8293443;28;20381;-63
2021/07/17 04:01:30;;;;;;;560.30;363.67;;;16.80;99.90;;;;;;8294306;28;20028;-63
2021/07/17 04:05:30;;;;;;;566.38;372.08;;;17.20;99.90;;;;;;8268977;28;20037;-63
2021/07/17 04:09:31;;;;;;;538.58;370.75;;;17.20;99.90;;;;;;8261222;28;20605;-63
2021/07/17 04:13:32;;;;;;;16.65;13.00;;;17.20;99.90;;;;;;8261224;28;20449;-63
2021/07/17 04:17:33;;;;;;;23.55;16.15;;;17.20;99.90;;;;;;8260660;28;20026;-63
2021/07/17 04:21:33;;;;;;;19.20;14.23;;;17.30;99.90;;;;;;8260910;28;20101;-63
2021/07/17 04:25:34;;;;;;;19.67;13.93;;;17.10;99.90;;;;;;8289454;28;20511;-63
2021/07/17 04:29:34;;;;;;;21.20;16.58;;;17.10;99.90;;;;;;8293169;28;20024;-63
2021/07/17 04:33:35;;;;;;;24.70;15.80;;;17.30;99.90;;;;;;8264264;28;20457;-63
2021/07/17 04:37:35;;;;;;;21.92;15.50;;;17.20;99.90;;;;;;8259597;28;20057;-63
2021/07/17 04:41:36;;;;;;;559.30;375.67;;;17.20;99.90;;;;;;8259369;28;20042;-63
2021/07/17 04:45:37;;;;;;;21.42;16.00;;;17.10;99.90;;;;;;8260394;28;20026;-63
2021/07/17 04:49:37;;;;;;;25.38;17.33;;;17.30;99.90;;;;;;8265647;28;20097;-63
2021/07/17 04:53:38;;;;;;;20.50;15.85;;;17.30;99.90;;;;;;8284695;28;20030;-64
2021/07/17 04:57:40;;;;;;;25.92;14.80;;;17.30;99.90;;;;;;8281194;28;20029;-64
2021/07/17 05:01:40;;;;;;;25.90;17.08;;;17.20;99.90;;;;;;8275356;28;20029;-64
2021/07/17 05:05:41;;;;;;;26.80;18.25;;;17.20;99.90;;;;;;8274270;28;20389;-64
2021/07/17 05:09:42;;;;;;;414.13;295.88;;;17.20;99.90;;;;;;8288435;28;20037;-64
2021/07/17 05:13:42;;;;;;;26.40;19.60;;;17.30;99.90;;;;;;8263832;28;20080;-64
2021/07/17 05:17:43;;;;;;;29.13;19.63;;;17.30;99.90;;;;;;8270110;28;20034;-64
2021/07/17 05:21:44;;;;;;;26.20;19.67;;;17.40;99.90;;;;;;8266683;28;20543;-65
2021/07/17 05:25:46;;;;;;;27.08;20.65;;;17.50;99.90;;;;;;8270801;28;20600;-64
2021/07/17 05:29:47;;;;;;;29.27;18.10;;;17.50;99.90;;;;;;8258450;28;20048;-64
2021/07/17 05:33:48;;;;;;;28.20;20.33;;;17.50;99.90;;;;;;8265362;28;20046;-64
2021/07/17 05:37:49;;;;;;;28.00;20.42;;;17.60;99.90;;;;;;8266264;28;20226;-64
2021/07/17 05:41:50;;;;;;;28.83;18.80;;;17.60;99.90;;;;;;8246908;28;20027;-64
2021/07/17 05:45:53;;;;;;;28.00;19.88;;;17.60;99.90;;;;;;8233398;28;20118;-64
2021/07/17 05:49:53;;;;;;;28.05;18.83;;;17.60;99.90;;;;;;8234108;28;20031;-64
2021/07/17 05:53:54;;;;;;;27.95;19.55;;;17.60;99.90;;;;;;8298353;28;20438;-64
2021/07/17 05:57:54;;;;;;;31.02;20.35;;;17.70;99.90;;;;;;8298114;28;20033;-64
2021/07/17 06:01:55;;;;;;;28.48;19.70;;;17.60;99.90;;;;;;8298222;28;20113;-64
2021/07/17 06:05:56;;;;;;;31.65;20.98;;;17.50;99.90;;;;;;8270121;28;20717;-64
2021/07/17 06:09:56;;;;;;;29.23;19.48;;;17.50;99.90;;;;;;8268267;28;20105;-64
2021/07/17 06:13:57;;;;;;;29.20;20.50;;;17.40;99.90;;;;;;8272108;28;20037;-65
2021/07/17 06:17:57;;;;;;;27.73;18.92;;;17.50;99.90;;;;;;8265143;28;20536;-64
2021/07/17 06:21:58;;;;;;;27.75;18.58;;;17.60;99.90;;;;;;8264478;28;20124;-63
2021/07/17 06:25:59;;;;;;;25.25;17.65;;;17.70;99.90;;;;;;8272476;28;20525;-63
2021/07/17 06:29:59;;;;;;;27.17;17.05;;;17.70;99.90;;;;;;8267141;28;20029;-63
2021/07/17 06:34:00;;;;;;;22.30;14.88;;;17.90;99.90;;;;;;8288277;28;20029;-63
2021/07/17 06:38:01;;;;;;;565.85;385.02;;;17.90;99.90;;;;;;8286183;28;20031;-63
2021/07/17 06:42:01;;;;;;;27.75;18.20;;;17.80;99.90;;;;;;8240241;28;20069;-63
2021/07/17 06:46:03;;;;;;;25.50;16.13;;;17.70;99.90;;;;;;8262344;28;20062;-64
2021/07/17 06:50:04;;;;;;;27.85;16.65;;;17.60;99.90;;;;;;8263820;28;20054;-64
2021/07/17 06:54:05;;;;;;;26.52;17.33;;;17.60;99.90;;;;;;8280213;28;20658;-63
2021/07/17 06:58:06;;;;;;;28.23;18.50;;;17.70;99.90;;;;;;8275992;28;20026;-64
2021/07/17 07:02:06;;;;;;;23.35;17.13;;;17.70;99.90;;;;;;8284253;28;20032;-63
2021/07/17 07:06:07;;;;;;;23.58;16.25;;;17.80;99.90;;;;;;8265847;28;20316;-63
2021/07/17 07:10:09;;;;;;;23.70;13.75;;;17.90;99.90;;;;;;8288683;28;20488;-63
2021/07/17 07:14:09;;;;;;;21.10;13.48;;;17.80;99.90;;;;;;8274742;28;20064;-63
2021/07/17 07:18:12;;;;;;;20.63;12.95;;;17.80;99.90;;;;;;8274951;28;20025;-63
2021/07/17 07:22:12;;;;;;;17.30;12.43;;;18.00;99.90;;;;;;8294791;28;20037;-64
2021/07/17 07:26:13;;;;;;;18.60;13.18;;;18.10;99.90;;;;;;8277297;28;20711;-64
2021/07/17 07:30:13;;;;;;;16.25;12.02;;;18.20;99.90;;;;;;8265117;28;20072;-63
2021/07/17 07:34:14;;;;;;;19.23;13.07;;;18.30;99.90;;;;;;8261439;28;20483;-64
2021/07/17 07:38:14;;;;;;;18.70;12.20;;;18.50;99.90;;;;;;8262170;28;20386;-64
2021/07/17 07:42:15;;;;;;;22.38;12.93;;;18.60;99.90;;;;;;8276336;28;20037;-63
2021/07/17 07:46:16;;;;;;;17.52;12.65;;;18.40;99.90;;;;;;8293368;28;20032;-64
2021/07/17 07:50:17;;;;;;;16.45;11.80;;;18.40;99.90;;;;;;8273738;28;20022;-63
2021/07/17 07:54:18;;;;;;;19.08;12.95;;;18.30;99.90;;;;;;8260095;28;20696;-63
2021/07/17 07:58:18;;;;;;;19.33;11.98;;;18.20;99.90;;;;;;8261065;28;20586;-64
2021/07/17 08:02:19;;;;;;;20.88;11.77;;;17.80;99.90;;;;;;8282076;28;20045;-63
2021/07/17 08:06:19;;;;;;;17.42;12.00;;;17.80;99.90;;;;;;8287794;28;20400;-63
2021/07/17 08:10:21;;;;;;;15.70;11.48;;;17.90;99.90;;;;;;8293509;28;20022;-64
2021/07/17 08:14:22;;;;;;;14.27;10.85;;;18.10;99.90;;;;;;8293078;28;20079;-63
2021/07/17 08:18:22;;;;;;;14.73;10.50;;;18.40;99.90;;;;;;8270709;28;20038;-63
2021/07/17 08:22:23;;;;;;;14.40;10.27;;;18.60;99.90;;;;;;8259615;28;20034;-63
2021/07/17 08:26:25;;;;;;;14.65;9.98;;;18.70;99.90;;;;;;8265756;28;20077;-64
2021/07/17 08:30:25;;;;;;;13.90;9.93;;;18.90;99.90;;;;;;8248028;28;20033;-64
2021/07/17 08:34:26;;;;;;;11.52;9.13;;;19.10;99.90;;;;;;8271613;28;20042;-64
2021/07/17 08:38:26;;;;;;;14.18;9.20;;;19.10;99.90;;;;;;8263468;28;20033;-64
2021/07/17 08:42:31;;;;;;;13.30;8.68;;;18.90;99.90;;;;;;8257529;28;20029;-64
2021/07/17 08:46:35;;;;;;;11.15;8.55;;;19.10;99.90;;;;;;8273672;28;20117;-64
2021/07/17 08:50:37;;;;;;;10.07;7.78;;;19.30;99.90;;;;;;8281586;28;20026;-63
2021/07/17 08:54:40;;;;;;;10.23;7.68;;;19.30;99.90;;;;;;8265291;28;20038;-63
2021/07/17 08:58:41;;;;;;;9.50;7.30;;;19.20;99.90;;;;;;8292698;22;20106;-67
2021/07/17 09:02:47;;;;;;;10.98;8.07;;;19.10;99.90;;;;;;8301307;28;20076;-66
2021/07/17 09:06:48;;;;;;;11.65;8.60;;;19.00;99.90;;;;;;8307995;28;20396;-67
2021/07/17 09:10:51;;;;;;;13.68;7.95;;;18.80;99.90;;;;;;8269719;28;20035;-66
2021/07/17 09:14:52;;;;;;;10.02;8.07;;;18.90;99.90;;;;;;8242997;28;20022;-66
2021/07/17 09:18:53;;;;;;;10.60;7.80;;;19.30;99.90;;;;;;8260162;28;20053;-66
2021/07/17 09:23:03;;;;;;;12.43;9.10;;;19.20;99.90;;;;;;8266580;28;20026;-66
2021/07/17 09:27:03;;;;;;;12.85;9.38;;;19.10;99.90;;;;;;8285171;28;20633;-66
2021/07/17 09:31:06;;;;;;;11.52;8.93;;;19.30;99.90;;;;;;8282876;28;20041;-65
2021/07/17 09:35:15;;;;;;;10.57;8.65;;;19.70;99.90;;;;;;8258780;28;20033;-65
2021/07/17 09:39:17;;;;;;;12.77;9.13;;;20.20;99.90;;;;;;8259642;28;20675;-67
2021/07/17 09:43:31;;;;;;;13.15;8.88;;;20.40;99.90;;;;;;8272660;28;20032;-65
2021/07/17 09:47:31;;;;;;;13.88;9.00;;;20.60;99.90;;;;;;8291558;28;20022;-66
2021/07/17 09:51:34;;;;;;;11.75;9.00;;;21.40;99.90;;;;;;8292075;28;20025;-66
2021/07/17 09:55:34;;;;;;;12.38;8.10;;;21.40;99.90;;;;;;8292116;28;20053;-66
2021/07/17 09:59:35;;;;;;;10.57;7.70;;;21.60;99.90;;;;;;8280068;28;20038;-66
2021/07/17 10:03:35;;;;;;;12.05;8.73;;;21.60;99.90;;;;;;8297036;28;20034;-66
2021/07/17 10:07:37;;;;;;;10.65;8.27;;;21.50;99.90;;;;;;8295836;28;20026;-60
2021/07/17 10:11:38;;;;;;;13.10;8.55;;;20.80;99.90;;;;;;8274568;28;20484;-61
2021/07/17 10:15:38;;;;;;;13.15;9.07;;;20.50;99.90;;;;;;8278237;28;20677;-61
2021/07/17 10:19:41;;;;;;;11.65;8.82;;;20.30;99.90;;;;;;8295262;28;20046;-61
2021/07/17 10:23:43;;;;;;;14.40;9.38;;;20.40;99.90;;;;;;8295769;28;20034;-61
2021/07/17 10:27:43;;;;;;;11.05;8.60;;;20.40;99.90;;;;;;8295289;28;20505;-61
2021/07/17 10:31:45;;;;;;;12.80;9.27;;;20.50;99.90;;;;;;8295160;28;20030;-61
2021/07/17 10:35:47;;;;;;;12.60;8.95;;;20.30;99.90;;;;;;8294015;28;20025;-60
2021/07/17 10:40:00;;;;;;;12.98;8.52;;;19.50;99.90;;;;;;8272587;28;20037;-60
2021/07/17 10:44:01;;;;;;;12.02;7.55;;;19.80;99.90;;;;;;8274819;28;20030;-60
2021/07/17 10:48:02;;;;;;;16.00;8.10;;;20.60;99.90;;;;;;8292984;28;20507;-61
2021/07/17 10:52:03;;;;;;;11.95;8.65;;;20.40;99.90;;;;;;8291787;28;20087;-61
2021/07/17 10:56:29;;;;;;;10.65;8.15;;;20.10;99.90;;;;;;8285674;28;20038;-61
2021/07/17 11:00:41;;;;;;;10.00;8.10;;;20.10;99.90;;;;;;8279154;28;20040;-61
2021/07/17 11:04:49;;;;;;;10.40;8.45;;;20.10;99.90;;;;;;8287001;28;20037;-61
2021/07/17 11:08:50;;;;;;;11.30;8.95;;;19.80;99.90;;;;;;8293584;28;20029;-61
2021/07/17 11:12:54;;;;;;;11.55;8.55;;;19.90;99.90;;;;;;8280091;28;20674;-60
2021/07/17 11:16:55;;;;;;;13.55;9.55;;;20.10;99.90;;;;;;8283172;28;20060;-60
2021/07/17 11:20:59;;;;;;;12.00;9.15;;;20.10;99.90;;;;;;8292051;28;20046;-60
2021/07/17 11:25:04;;;;;;;11.32;8.85;;;20.70;99.90;;;;;;8292769;28;20384;-60
2021/07/17 11:29:09;;;;;;;12.23;7.85;;;21.10;99.90;;;;;;8294723;28;20030;-60
2021/07/17 11:33:09;;;;;;;9.73;7.20;;;21.30;99.90;;;;;;8294342;28;20049;-60
2021/07/17 11:37:12;;;;;;;10.85;7.50;;;22.70;99.90;;;;;;8294547;28;20037;-61
2021/07/17 11:41:12;;;;;;;10.48;6.75;;;22.90;99.90;;;;;;8294240;28;20033;-60
2021/07/17 11:45:13;;;;;;;7.18;6.45;;;23.50;99.90;;;;;;8289770;28;20108;-61
2021/07/17 11:49:13;;;;;;;8.07;6.60;;;24.60;99.90;;;;;;8291936;28;20488;-61
2021/07/17 11:53:18;;;;;;;6.68;5.75;;;26.20;99.90;;;;;;8285439;28;20105;-61
2021/07/17 11:57:25;;;;;;;7.03;6.32;;;26.20;99.90;;;;;;8292651;28;20488;-61
2021/07/17 12:01:25;;;;;;;7.25;6.40;;;24.90;99.90;;;;;;8289903;28;21846;-61
2021/07/17 12:05:26;;;;;;;6.85;6.15;;;23.40;99.90;;;;;;8293442;28;20034;-61
2021/07/17 12:10:03;;;;;;;6.65;5.15;;;22.50;99.90;;;;;;8293118;28;20057;-61
2021/07/17 12:14:20;;;;;;;8.07;6.43;;;21.60;99.90;;;;;;8260656;28;20512;-61
2021/07/17 12:18:22;;;;;;;8.90;7.18;;;20.90;99.90;;;;;;8291327;28;20041;-61
2021/07/17 12:22:22;;;;;;;10.43;7.45;;;20.30;99.90;;;;;;8275426;28;20034;-66
2021/07/17 12:26:23;;;;;;;8.05;7.05;;;20.30;99.90;;;;;;8292720;28;20088;-66
2021/07/17 12:30:29;;;;;;;8.13;6.82;;;21.00;99.90;;;;;;8274677;28;20032;-66
2021/07/17 12:34:30;;;;;;;8.02;6.47;;;21.80;99.90;;;;;;8292638;28;20026;-66
2021/07/17 12:38:34;;;;;;;9.40;6.43;;;22.60;99.90;;;;;;8291204;28;20400;-66
2021/07/17 12:42:46;;;;;;;8.07;6.40;;;23.40;99.90;;;;;;8293016;28;20029;-67
2021/07/17 12:46:52;;;;;;;8.40;6.03;;;23.40;99.90;;;;;;8292522;28;20017;-65
2021/07/17 12:51:04;;;;;;;7.82;6.55;;;23.50;99.90;;;;;;8291975;28;20034;-61
2021/07/17 12:55:06;;;;;;;7.93;6.78;;;22.70;99.90;;;;;;8292300;28;20033;-62
2021/07/17 12:59:37;;;;;;;7.15;6.20;;;22.20;99.90;;;;;;8290786;28;20396;-61
2021/07/17 13:03:38;;;;;;;8.97;6.83;;;22.00;99.90;;;;;;8290179;28;20046;-61
2021/07/17 13:07:41;;;;;;;9.85;6.55;;;21.40;99.90;;;;;;8292000;28;20025;-61
2021/07/17 13:11:49;;;;;;;11.63;7.05;;;21.40;99.90;;;;;;8291869;28;20049;-61
2021/07/17 13:15:54;;;;;;;207.13;192.95;;;21.50;99.90;;;;;;8274450;28;20030;-61
2021/07/17 13:20:05;;;;;;;8.82;6.55;;;21.20;99.90;;;;;;8291987;28;20112;-62
2021/07/17 13:24:07;;;;;;;11.25;7.05;;;21.40;99.90;;;;;;8291923;28;20034;-61
2021/07/17 13:28:09;;;;;;;10.15;7.85;;;21.10;99.90;;;;;;8291370;28;20105;-62
2021/07/17 13:32:10;;;;;;;10.60;7.60;;;21.00;99.90;;;;;;8294602;28;20431;-61
2021/07/17 13:36:10;;;;;;;9.00;7.18;;;21.30;99.90;;;;;;8297573;28;20049;-61
2021/07/17 13:40:24;;;;;;;11.07;7.78;;;21.20;99.90;;;;;;8297616;28;20037;-61
2021/07/17 13:44:26;;;;;;;13.27;8.10;;;21.50;99.90;;;;;;8298304;28;20033;-61
2021/07/17 13:48:27;;;;;;;10.38;8.13;;;21.40;99.90;;;;;;8297882;28;20030;-61
2021/07/17 13:52:37;;;;;;;10.40;8.05;;;21.70;99.90;;;;;;8296786;28;20068;-62
2021/07/17 13:56:37;;;;;;;11.80;8.40;;;22.00;99.90;;;;;;8297586;28;20026;-61
2021/07/17 14:00:50;;;;;;;11.45;8.35;;;21.60;99.90;;;;;;8280683;28;20034;-61
2021/07/17 14:04:50;;;;;;;12.05;8.15;;;21.70;99.90;;;;;;8269537;28;20484;-61
2021/07/17 14:08:51;;;;;;;13.02;9.23;;;21.30;99.90;;;;;;8297138;28;20022;-61
2021/07/17 14:12:51;;;;;;;13.90;9.85;;;20.90;99.90;;;;;;8296422;28;20033;-61
2021/07/17 14:16:52;;;;;;;12.32;9.82;;;20.80;99.90;;;;;;8296415;28;20070;-61
2021/07/17 14:20:53;;;;;;;14.55;9.98;;;20.60;99.90;;;;;;8297319;28;20037;-61
2021/07/17 14:24:54;;;;;;;11.32;9.15;;;20.50;99.90;;;;;;8296617;28;20022;-61
2021/07/17 14:28:54;;;;;;;13.52;10.57;;;20.30;99.90;;;;;;8296424;28;20036;-61
2021/07/17 14:32:56;;;;;;;14.20;11.63;;;20.40;99.90;;;;;;8277957;28;20046;-61
2021/07/17 14:36:56;;;;;;;18.10;11.73;;;20.50;99.90;;;;;;8295426;28;20033;-60
2021/07/17 14:40:57;;;;;;;15.30;11.85;;;20.40;99.90;;;;;;8289607;28;20641;-61
2021/07/17 14:44:58;;;;;;;16.73;11.55;;;20.30;99.90;;;;;;8266082;28;20453;-61
2021/07/17 14:48:59;;;;;;;17.60;12.23;;;20.30;99.90;;;;;;8290321;28;20397;-61
2021/07/17 14:53:00;;;;;;;14.25;11.07;;;20.50;99.90;;;;;;8294670;28;20121;-61
2021/07/17 14:57:00;;;;;;;15.40;10.85;;;20.60;99.90;;;;;;8291145;28;20404;-61
2021/07/17 15:01:01;;;;;;;20.00;12.55;;;20.70;99.90;;;;;;8281184;28;20041;-62
2021/07/17 15:05:02;;;;;;;13.57;10.73;;;20.80;99.90;;;;;;8293852;28;20026;-62
2021/07/17 15:09:03;;;;;;;17.77;12.30;;;20.50;99.90;;;;;;8291112;28;20109;-61
2021/07/17 15:13:04;;;;;;;24.13;14.80;;;20.30;99.90;;;;;;8294844;28;20088;-61
2021/07/17 15:17:05;;;;;;;22.23;15.88;;;20.00;99.90;;;;;;8291240;28;20026;-61
2021/07/17 15:21:05;;;;;;;22.10;16.02;;;19.80;99.90;;;;;;8294318;28;20037;-67
2021/07/17 15:25:06;;;;;;;25.17;17.55;;;19.70;99.90;;;;;;8294166;28;20026;-67
2021/07/17 15:29:13;;;;;;;25.33;16.17;;;19.60;99.90;;;;;;8287928;28;20453;-66
2021/07/17 15:33:14;;;;;;;24.85;16.85;;;19.50;99.90;;;;;;8261506;28;20028;-66
2021/07/17 15:37:14;;;;;;;103.38;92.82;;;19.20;99.90;;;;;;8271632;28;20036;-69
2021/07/17 15:41:16;;;;;;;555.83;397.65;;;19.10;99.90;;;;;;8284922;28;20048;-68
2021/07/17 15:45:18;;;;;;;568.78;396.85;;;18.90;99.90;;;;;;8290520;28;20030;-67
2021/07/17 15:49:18;;;;;;;578.35;401.33;;;19.00;99.90;;;;;;8292143;28;20110;-68
2021/07/17 15:53:19;;;;;;;579.00;412.55;;;19.10;99.90;;;;;;8275199;28;20026;-62
2021/07/17 15:57:20;;;;;;;587.88;412.55;;;19.20;99.90;;;;;;8292810;28;20536;-61
2021/07/17 16:01:20;;;;;;;581.83;411.92;;;19.30;99.90;;;;;;8281008;28;20092;-61
2021/07/17 16:05:21;;;;;;;584.92;418.35;;;19.20;99.90;;;;;;8283112;28;20072;-61
2021/07/17 16:09:22;;;;;;;587.70;429.20;;;19.10;99.90;;;;;;8280492;28;20108;-62
2021/07/17 16:13:22;;;;;;;591.75;440.58;;;19.20;99.90;;;;;;8264515;28;20191;-60
2021/07/17 16:17:23;;;;;;;592.03;434.95;;;19.30;99.90;;;;;;8286452;28;20034;-61
2021/07/17 16:21:23;;;;;;;597.17;443.25;;;19.20;99.90;;;;;;8289465;28;20026;-61
2021/07/17 16:25:25;;;;;;;601.15;447.40;;;19.20;99.90;;;;;;8278770;28;20511;-61
2021/07/17 16:29:26;;;;;;;595.22;445.35;;;19.30;99.90;;;;;;8272990;28;20027;-61
2021/07/17 16:33:26;;;;;;;596.33;444.70;;;19.20;99.90;;;;;;8288396;28;20029;-61
2021/07/17 16:37:27;;;;;;;590.95;434.77;;;19.10;99.90;;;;;;8292089;28;20032;-61
2021/07/17 16:41:28;;;;;;;593.95;437.15;;;19.00;99.90;;;;;;8277245;28;20600;-60
2021/07/17 16:45:29;;;;;;;597.85;444.13;;;19.00;99.90;;;;;;8281558;28;20022;-61
2021/07/17 16:49:29;;;;;;;597.35;444.30;;;19.00;99.90;;;;;;8258841;28;20060;-60
2021/07/17 16:53:30;;;;;;;596.00;440.75;;;19.00;99.90;;;;;;8278668;28;20072;-61
2021/07/17 16:57:30;;;;;;;596.85;443.02;;;19.00;99.90;;;;;;8291386;28;20583;-60
2021/07/17 17:01:31;;;;;;;592.15;428.52;;;19.00;99.90;;;;;;8281210;28;20064;-61
2021/07/17 17:05:32;;;;;;;592.90;436.80;;;19.00;99.90;;;;;;8289953;28;20457;-61
2021/07/17 17:09:32;;;;;;;594.65;438.17;;;19.00;99.90;;;;;;8298840;28;20037;-61
2021/07/17 17:13:34;;;;;;;599.72;451.48;;;19.10;99.90;;;;;;8277156;28;20084;-61
2021/07/17 17:17:36;;;;;;;595.60;455.35;;;19.20;99.90;;;;;;8271942;28;20041;-61
2021/07/17 17:21:36;;;;;;;601.00;455.08;;;19.40;99.90;;;;;;8288655;28;20057;-61
2021/07/17 17:25:37;;;;;;;606.83;466.10;;;19.30;99.90;;;;;;8277264;28;20398;-61
2021/07/17 17:29:38;;;;;;;600.22;463.83;;;19.30;99.90;;;;;;8277951;28;20030;-61
2021/07/17 17:33:38;;;;;;;606.10;471.00;;;19.30;99.90;;;;;;8273649;28;20109;-61
2021/07/17 17:37:41;;;;;;;605.45;466.05;;;19.20;99.90;;;;;;8282571;28;20030;-61
2021/07/17 17:41:41;;;;;;;602.10;464.13;;;19.30;99.90;;;;;;8277814;28;20034;-61
2021/07/17 17:45:42;;;;;;;599.30;472.77;;;19.20;99.90;;;;;;8278498;28;20240;-61
2021/07/17 17:49:43;;;;;;;581.13;473.45;;;19.10;99.90;;;;;;8279999;28;20030;-61
2021/07/17 17:53:43;;;;;;;582.53;464.52;;;19.20;99.90;;;;;;8292818;28;20447;-60
2021/07/17 17:57:44;;;;;;;585.55;465.33;;;19.20;99.90;;;;;;8283039;28;20095;-60
2021/07/17 18:01:45;;;;;;;590.20;469.85;;;19.30;99.90;;;;;;8283355;28;20056;-61
2021/07/17 18:05:45;;;;;;;572.35;471.70;;;19.30;99.90;;;;;;8274630;28;20709;-60
2021/07/17 18:09:46;;;;;;;570.50;477.70;;;19.30;99.90;;;;;;8265127;28;20101;-61
2021/07/17 18:13:46;;;;;;;562.70;480.38;;;19.30;99.90;;;;;;8278522;28;20029;-60
2021/07/17 18:17:47;;;;;;;566.40;470.27;;;19.20;99.90;;;;;;8276366;28;20022;-60
2021/07/17 18:21:48;;;;;;;559.85;477.17;;;19.20;99.90;;;;;;8276839;28;20022;-60
2021/07/17 18:25:48;;;;;;;569.58;481.10;;;19.10;99.90;;;;;;8278097;28;20041;-60
2021/07/17 18:29:49;;;;;;;572.67;466.55;;;19.20;99.90;;;;;;8276575;28;20022;-60
2021/07/17 18:33:50;;;;;;;571.35;477.45;;;19.20;99.90;;;;;;8287161;28;20611;-61
2021/07/17 18:37:54;;;;;;;572.65;467.95;;;19.10;99.90;;;;;;8292293;28;20041;-61
2021/07/17 18:41:54;;;;;;;597.88;450.20;;;19.20;99.90;;;;;;8292351;28;20025;-60
2021/07/17 18:45:55;;;;;;;600.30;453.02;;;19.10;99.90;;;;;;8292497;28;20068;-60
2021/07/17 18:49:55;;;;;;;594.85;440.08;;;19.00;99.90;;;;;;8291085;28;20507;-58
2021/07/17 18:53:56;;;;;;;597.08;444.60;;;19.00;99.90;;;;;;8275240;28;20488;-61
2021/07/17 18:57:57;;;;;;;598.20;447.27;;;19.10;99.90;;;;;;8283037;28;20026;-60
2021/07/17 19:01:58;;;;;;;600.70;445.60;;;19.00;99.90;;;;;;8267354;28;20465;-59
2021/07/17 19:05:59;;;;;;;598.83;446.15;;;19.10;99.90;;;;;;8270469;28;20059;-60
2021/07/17 19:10:00;;;;;;;599.80;449.27;;;18.90;99.90;;;;;;8291729;28;20025;-60
2021/07/17 19:14:00;;;;;;;600.85;454.42;;;19.00;99.90;;;;;;8291695;28;20065;-60
2021/07/17 19:18:01;;;;;;;588.10;436.75;;;18.90;99.90;;;;;;8273798;28;20025;-58
2021/07/17 19:22:01;;;;;;;587.38;423.95;;;19.20;99.90;;;;;;8273928;28;20037;-60
2021/07/17 19:26:02;;;;;;;592.20;433.65;;;18.90;99.90;;;;;;8290972;28;20044;-60
2021/07/17 19:30:05;;;;;;;588.38;432.13;;;18.80;99.90;;;;;;8289750;28;20096;-60
2021/07/17 19:34:05;;;;;;;593.72;433.77;;;18.90;99.90;;;;;;8290831;28;20030;-59
2021/07/17 19:38:10;;;;;;;592.00;431.85;;;18.70;99.90;;;;;;8290428;28;20620;-59
2021/07/17 19:42:11;;;;;;;599.00;442.50;;;18.70;99.90;;;;;;8289631;28;20022;-60
2021/07/17 19:46:11;;;;;;;601.10;438.08;;;18.50;99.90;;;;;;8272311;28;20507;-60
2021/07/17 19:50:13;;;;;;;598.70;433.58;;;18.60;99.90;;;;;;8289611;28;20037;-60
2021/07/17 19:54:13;;;;;;;599.63;442.30;;;18.60;99.90;;;;;;8285348;28;20041;-60
2021/07/17 19:58:14;;;;;;;599.85;448.35;;;18.60;99.90;;;;;;8269534;28;20432;-59
2021/07/17 20:02:14;;;;;;;599.63;442.00;;;18.90;99.90;;;;;;8255267;28;20037;-60
2021/07/17 20:06:15;;;;;;;597.08;440.98;;;18.70;99.90;;;;;;8289347;28;20038;-58
2021/07/17 20:10:19;;;;;;;598.40;441.65;;;18.70;99.90;;;;;;8289970;28;20522;-60
2021/07/17 20:14:20;;;;;;;602.53;446.42;;;18.60;99.90;;;;;;8289098;28;20032;-60
2021/07/17 20:18:21;;;;;;;599.53;438.52;;;18.60;99.90;;;;;;8288181;28;20041;-60